sensor_id;sensor_type;location;lat;lon;timestamp;temperature;humidity
4643;DHT22;2334;48.710;9.622;2022-11-20T00:00:40;6.60;99.90
4643;DHT22;2334;48.710;9.622;2022-11-20T00:03:06;6.50;99.90
4643;DHT22;2334;48.710;9.622;2022-11-20T00:05:33;6.50;99.90
4643;DHT22;2334;48.710;9.622;2022-11-20T00:08:00;6.50;99.90
4643;DHT22;2334;48.710;9.622;2022-11-20T00:10:27;6.50;99.90
4643;DHT22;2334;48.710;9.622;2022-11-20T00:12:57;6.40;99.90
4643;DHT22;2334;48.710;9.622;2022-11-20T00:15:24;6.30;99.90
4643;DHT22;2334;48.710;9.622;2022-11-20T00:17:51;6.30;99.90
4643;DHT22;2334;48.710;9.622;2022-11-20T00:20:18;6.20;99.90
4643;DHT22;2334;48.710;9.622;2022-11-20T00:22:45;6.20;99.90
4643;DHT22;2334;48.710;9.622;2022-11-20T00:25:11;6.10;99.90
4643;DHT22;2334;48.710;9.622;2022-11-20T00:27:38;6.10;99.90
4643;DHT22;2334;48.710;9.622;2022-11-20T00:30:08;6.00;99.90
4643;DHT22;2334;48.710;9.622;2022-11-20T00:32:35;6.00;99.90
4643;DHT22;2334;48.710;9.622;2022-11-20T00:35:01;5.90;99.90
4643;DHT22;2334;48.710;9.622;2022-11-20T00:37:28;5.90;99.90
4643;DHT22;2334;48.710;9.622;2022-11-20T00:39:55;5.80;99.90
4643;DHT22;2334;48.710;9.622;2022-11-20T00:42:22;5.70;99.90
4643;DHT22;2334;48.710;9.622;2022-11-20T00:44:49;5.70;99.90
4643;DHT22;2334;48.710;9.622;2022-11-20T00:47:17;5.60;99.90
4643;DHT22;2334;48.710;9.622;2022-11-20T00:49:44;5.50;99.90
4643;DHT22;2334;48.710;9.622;2022-11-20T00:52:11;5.50;99.90
4643;DHT22;2334;48.710;9.622;2022-11-20T00:54:38;5.40;99.90
4643;DHT22;2334;48.710;9.622;2022-11-20T00:57:04;5.40;99.90
4643;DHT22;2334;48.710;9.622;2022-11-20T00:59:31;5.30;99.90
4643;DHT22;2334;48.710;9.622;2022-11-20T01:01:58;5.30;99.90
4643;DHT22;2334;48.710;9.622;2022-11-20T01:04:28;5.30;99.90
4643;DHT22;2334;48.710;9.622;2022-11-20T01:06:55;5.30;99.90
4643;DHT22;2334;48.710;9.622;2022-11-20T01:09:22;5.20;99.90
4643;DHT22;2334;48.710;9.622;2022-11-20T01:11:49;5.20;99.90
4643;DHT22;2334;48.710;9.622;2022-11-20T01:14:17;5.20;99.90
4643;DHT22;2334;48.710;9.622;2022-11-20T01:16:46;5.30;99.90
4643;DHT22;2334;48.710;9.622;2022-11-20T01:19:15;5.30;99.90
4643;DHT22;2334;48.710;9.622;2022-11-20T01:21:47;5.30;99.90
4643;DHT22;2334;48.710;9.622;2022-11-20T01:24:15;5.30;99.90
4643;DHT22;2334;48.710;9.622;2022-11-20T01:26:44;5.30;99.90
4643;DHT22;2334;48.710;9.622;2022-11-20T01:29:14;5.30;99.90
4643;DHT22;2334;48.710;9.622;2022-11-20T01:31:41;5.30;99.90
4643;DHT22;2334;48.710;9.622;2022-11-20T01:34:12;5.30;99.90
4643;DHT22;2334;48.710;9.622;2022-11-20T01:36:39;5.30;99.90
4643;DHT22;2334;48.710;9.622;2022-11-20T01:39:12;5.30;99.90
4643;DHT22;2334;48.710;9.622;2022-11-20T01:41:40;5.30;99.90
4643;DHT22;2334;48.710;9.622;2022-11-20T01:44:42;5.30;99.90
4643;DHT22;2334;48.710;9.622;2022-11-20T01:47:13;5.30;99.90
4643;DHT22;2334;48.710;9.622;2022-11-20T01:49:43;5.20;99.90
4643;DHT22;2334;48.710;9.622;2022-11-20T01:52:17;5.20;99.90
4643;DHT22;2334;48.710;9.622;2022-11-20T01:54:49;5.20;99.90
4643;DHT22;2334;48.710;9.622;2022-11-20T01:57:18;5.20;99.90
4643;DHT22;2334;48.710;9.622;2022-11-20T01:59:50;5.20;99.90
4643;DHT22;2334;48.710;9.622;2022-11-20T02:02:18;5.20;99.90
4643;DHT22;2334;48.710;9.622;2022-11-20T02:04:46;5.20;99.90
4643;DHT22;2334;48.710;9.622;2022-11-20T02:07:14;5.30;99.90
4643;DHT22;2334;48.710;9.622;2022-11-20T02:09:41;5.30;99.90
4643;DHT22;2334;48.710;9.622;2022-11-20T02:12:09;5.30;99.90
4643;DHT22;2334;48.710;9.622;2022-11-20T02:14:56;5.30;99.90
4643;DHT22;2334;48.710;9.622;2022-11-20T02:17:23;5.30;99.90
4643;DHT22;2334;48.710;9.622;2022-11-20T02:19:50;5.30;99.90
4643;DHT22;2334;48.710;9.622;2022-11-20T02:22:21;5.30;99.90
4643;DHT22;2334;48.710;9.622;2022-11-20T02:24:52;5.30;99.90
4643;DHT22;2334;48.710;9.622;2022-11-20T02:27:19;5.20;99.90
4643;DHT22;2334;48.710;9.622;2022-11-20T02:29:48;5.20;99.90
4643;DHT22;2334;48.710;9.622;2022-11-20T02:32:21;5.20;99.90
4643;DHT22;2334;48.710;9.622;2022-11-20T02:34:48;5.20;99.90
4643;DHT22;2334;48.710;9.622;2022-11-20T02:37:15;5.10;99.90
4643;DHT22;2334;48.710;9.622;2022-11-20T02:39:44;5.20;99.90
4643;DHT22;2334;48.710;9.622;2022-11-20T02:42:13;5.10;99.90
4643;DHT22;2334;48.710;9.622;2022-11-20T02:44:40;5.10;99.90
4643;DHT22;2334;48.710;9.622;2022-11-20T02:47:07;5.10;99.90
4643;DHT22;2334;48.710;9.622;2022-11-20T02:49:34;5.10;99.90
4643;DHT22;2334;48.710;9.622;2022-11-20T02:52:01;5.00;99.90
4643;DHT22;2334;48.710;9.622;2022-11-20T02:54:28;5.00;99.90
4643;DHT22;2334;48.710;9.622;2022-11-20T02:56:55;5.00;99.90
4643;DHT22;2334;48.710;9.622;2022-11-20T02:59:23;5.00;99.90
4643;DHT22;2334;48.710;9.622;2022-11-20T03:01:50;5.00;99.90
4643;DHT22;2334;48.710;9.622;2022-11-20T03:04:17;4.90;99.90
4643;DHT22;2334;48.710;9.622;2022-11-20T03:06:44;5.00;99.90
4643;DHT22;2334;48.710;9.622;2022-11-20T03:09:11;4.90;99.90
4643;DHT22;2334;48.710;9.622;2022-11-20T03:11:38;4.90;99.90
4643;DHT22;2334;48.710;9.622;2022-11-20T03:14:05;4.90;99.90
4643;DHT22;2334;48.710;9.622;2022-11-20T03:16:33;4.90;99.90
4643;DHT22;2334;48.710;9.622;2022-11-20T03:19:01;4.90;99.90
4643;DHT22;2334;48.710;9.622;2022-11-20T03:21:28;4.80;99.90
4643;DHT22;2334;48.710;9.622;2022-11-20T03:23:55;4.80;99.90
4643;DHT22;2334;48.710;9.622;2022-11-20T03:26:23;4.80;99.90
4643;DHT22;2334;48.710;9.622;2022-11-20T03:28:52;4.90;99.90
4643;DHT22;2334;48.710;9.622;2022-11-20T03:31:20;4.90;99.90
4643;DHT22;2334;48.710;9.622;2022-11-20T03:33:49;4.90;99.90
4643;DHT22;2334;48.710;9.622;2022-11-20T03:36:17;4.90;99.90
4643;DHT22;2334;48.710;9.622;2022-11-20T03:38:45;4.90;99.90
4643;DHT22;2334;48.710;9.622;2022-11-20T03:41:15;4.90;99.90
4643;DHT22;2334;48.710;9.622;2022-11-20T03:43:47;4.90;99.90
4643;DHT22;2334;48.710;9.622;2022-11-20T03:46:14;4.90;99.90
4643;DHT22;2334;48.710;9.622;2022-11-20T03:48:41;4.90;99.90
4643;DHT22;2334;48.710;9.622;2022-11-20T03:51:11;4.90;99.90
4643;DHT22;2334;48.710;9.622;2022-11-20T03:53:39;4.90;99.90
4643;DHT22;2334;48.710;9.622;2022-11-20T03:56:07;4.90;99.90
4643;DHT22;2334;48.710;9.622;2022-11-20T03:58:35;4.90;99.90
4643;DHT22;2334;48.710;9.622;2022-11-20T04:01:06;5.00;99.90
4643;DHT22;2334;48.710;9.622;2022-11-20T04:03:34;4.90;99.90
4643;DHT22;2334;48.710;9.622;2022-11-20T04:06:03;5.00;99.90
4643;DHT22;2334;48.710;9.622;2022-11-20T04:08:32;4.90;99.90
4643;DHT22;2334;48.710;9.622;2022-11-20T04:11:08;5.00;99.90
4643;DHT22;2334;48.710;9.622;2022-11-20T04:13:36;5.00;99.90
4643;DHT22;2334;48.710;9.622;2022-11-20T04:16:04;5.00;99.90
4643;DHT22;2334;48.710;9.622;2022-11-20T04:18:31;5.00;99.90
4643;DHT22;2334;48.710;9.622;2022-11-20T04:20:57;5.00;99.90
4643;DHT22;2334;48.710;9.622;2022-11-20T04:23:25;5.00;99.90
4643;DHT22;2334;48.710;9.622;2022-11-20T04:25:53;5.00;99.90
4643;DHT22;2334;48.710;9.622;2022-11-20T04:28:20;5.00;99.90
4643;DHT22;2334;48.710;9.622;2022-11-20T04:30:47;5.00;99.90
4643;DHT22;2334;48.710;9.622;2022-11-20T04:33:14;5.00;99.90
4643;DHT22;2334;48.710;9.622;2022-11-20T04:35:41;5.00;99.90
4643;DHT22;2334;48.710;9.622;2022-11-20T04:38:08;5.00;99.90
4643;DHT22;2334;48.710;9.622;2022-11-20T04:40:35;5.00;99.90
4643;DHT22;2334;48.710;9.622;2022-11-20T04:43:03;5.00;99.90
4643;DHT22;2334;48.710;9.622;2022-11-20T04:45:30;5.00;99.90
4643;DHT22;2334;48.710;9.622;2022-11-20T04:47:57;5.10;99.90
4643;DHT22;2334;48.710;9.622;2022-11-20T04:50:24;5.10;99.90
4643;DHT22;2334;48.710;9.622;2022-11-20T04:52:51;5.00;99.90
4643;DHT22;2334;48.710;9.622;2022-11-20T04:55:17;5.10;99.90
4643;DHT22;2334;48.710;9.622;2022-11-20T04:57:44;5.10;99.90
4643;DHT22;2334;48.710;9.622;2022-11-20T05:00:14;5.10;99.90
4643;DHT22;2334;48.710;9.622;2022-11-20T05:02:41;5.10;99.90
4643;DHT22;2334;48.710;9.622;2022-11-20T05:05:08;5.10;99.90
4643;DHT22;2334;48.710;9.622;2022-11-20T05:07:35;5.10;99.90
4643;DHT22;2334;48.710;9.622;2022-11-20T05:10:02;5.20;99.90
4643;DHT22;2334;48.710;9.622;2022-11-20T05:12:29;5.20;99.90
4643;DHT22;2334;48.710;9.622;2022-11-20T05:14:56;5.20;99.90
4643;DHT22;2334;48.710;9.622;2022-11-20T05:17:24;5.20;99.90
4643;DHT22;2334;48.710;9.622;2022-11-20T05:19:51;5.20;99.90
4643;DHT22;2334;48.710;9.622;2022-11-20T05:22:17;5.20;99.90
4643;DHT22;2334;48.710;9.622;2022-11-20T05:24:44;5.30;99.90
4643;DHT22;2334;48.710;9.622;2022-11-20T05:27:11;5.20;99.90
4643;DHT22;2334;48.710;9.622;2022-11-20T05:29:38;5.30;99.90
4643;DHT22;2334;48.710;9.622;2022-11-20T05:32:05;5.30;99.90
4643;DHT22;2334;48.710;9.622;2022-11-20T05:34:35;5.30;99.90
4643;DHT22;2334;48.710;9.622;2022-11-20T05:37:03;5.30;99.90
4643;DHT22;2334;48.710;9.622;2022-11-20T05:39:30;5.30;99.90
4643;DHT22;2334;48.710;9.622;2022-11-20T05:41:56;5.30;99.90
4643;DHT22;2334;48.710;9.622;2022-11-20T05:44:37;5.30;99.90
4643;DHT22;2334;48.710;9.622;2022-11-20T05:47:04;5.30;99.90
4643;DHT22;2334;48.710;9.622;2022-11-20T05:49:31;5.30;99.90
4643;DHT22;2334;48.710;9.622;2022-11-20T05:51:59;5.30;99.90
4643;DHT22;2334;48.710;9.622;2022-11-20T05:54:26;5.30;99.90
4643;DHT22;2334;48.710;9.622;2022-11-20T05:56:53;5.30;99.90
4643;DHT22;2334;48.710;9.622;2022-11-20T05:59:22;5.40;99.90
4643;DHT22;2334;48.710;9.622;2022-11-20T06:01:49;5.40;99.90
4643;DHT22;2334;48.710;9.622;2022-11-20T06:04:16;5.40;99.90
4643;DHT22;2334;48.710;9.622;2022-11-20T06:06:42;5.50;99.90
4643;DHT22;2334;48.710;9.622;2022-11-20T06:09:11;5.50;99.90
4643;DHT22;2334;48.710;9.622;2022-11-20T06:11:37;5.50;99.90
4643;DHT22;2334;48.710;9.622;2022-11-20T06:14:04;5.50;99.90
4643;DHT22;2334;48.710;9.622;2022-11-20T06:16:31;5.50;99.90
4643;DHT22;2334;48.710;9.622;2022-11-20T06:18:58;5.50;99.90
4643;DHT22;2334;48.710;9.622;2022-11-20T06:21:25;5.50;99.90
4643;DHT22;2334;48.710;9.622;2022-11-20T06:23:52;5.50;99.90
4643;DHT22;2334;48.710;9.622;2022-11-20T06:26:22;5.50;99.90
4643;DHT22;2334;48.710;9.622;2022-11-20T06:28:50;5.50;99.90
4643;DHT22;2334;48.710;9.622;2022-11-20T06:31:19;5.50;99.90
4643;DHT22;2334;48.710;9.622;2022-11-20T06:33:47;5.50;99.90
4643;DHT22;2334;48.710;9.622;2022-11-20T06:36:15;5.60;99.90
4643;DHT22;2334;48.710;9.622;2022-11-20T06:38:43;5.50;99.90
4643;DHT22;2334;48.710;9.622;2022-11-20T06:41:12;5.60;99.90
4643;DHT22;2334;48.710;9.622;2022-11-20T06:43:40;5.60;99.90
4643;DHT22;2334;48.710;9.622;2022-11-20T06:46:09;5.70;99.90
4643;DHT22;2334;48.710;9.622;2022-11-20T06:48:36;5.70;99.90
4643;DHT22;2334;48.710;9.622;2022-11-20T06:51:04;5.80;99.90
4643;DHT22;2334;48.710;9.622;2022-11-20T06:53:32;5.90;99.90
4643;DHT22;2334;48.710;9.622;2022-11-20T06:55:59;6.00;99.90
4643;DHT22;2334;48.710;9.622;2022-11-20T06:58:27;6.00;99.90
4643;DHT22;2334;48.710;9.622;2022-11-20T07:00:58;6.10;99.90
4643;DHT22;2334;48.710;9.622;2022-11-20T07:03:25;6.10;99.90
4643;DHT22;2334;48.710;9.622;2022-11-20T07:05:54;6.20;99.90
4643;DHT22;2334;48.710;9.622;2022-11-20T07:08:21;6.20;99.90
4643;DHT22;2334;48.710;9.622;2022-11-20T07:10:48;6.20;99.90
4643;DHT22;2334;48.710;9.622;2022-11-20T07:13:15;6.20;99.90
4643;DHT22;2334;48.710;9.622;2022-11-20T07:15:42;6.20;99.90
4643;DHT22;2334;48.710;9.622;2022-11-20T07:18:10;6.20;99.90
4643;DHT22;2334;48.710;9.622;2022-11-20T07:20:37;6.20;99.90
4643;DHT22;2334;48.710;9.622;2022-11-20T07:23:03;6.30;99.90
4643;DHT22;2334;48.710;9.622;2022-11-20T07:25:30;6.30;99.90
4643;DHT22;2334;48.710;9.622;2022-11-20T07:27:57;6.30;99.90
4643;DHT22;2334;48.710;9.622;2022-11-20T07:30:24;6.30;99.90
4643;DHT22;2334;48.710;9.622;2022-11-20T07:32:52;6.30;99.90
4643;DHT22;2334;48.710;9.622;2022-11-20T07:35:20;6.30;99.90
4643;DHT22;2334;48.710;9.622;2022-11-20T07:37:47;6.30;99.90
4643;DHT22;2334;48.710;9.622;2022-11-20T07:40:14;6.30;99.90
4643;DHT22;2334;48.710;9.622;2022-11-20T07:42:47;6.40;99.90
4643;DHT22;2334;48.710;9.622;2022-11-20T07:45:14;6.40;99.90
4643;DHT22;2334;48.710;9.622;2022-11-20T07:47:41;6.40;99.90
4643;DHT22;2334;48.710;9.622;2022-11-20T07:50:09;6.50;99.90
4643;DHT22;2334;48.710;9.622;2022-11-20T07:52:37;6.40;99.90
4643;DHT22;2334;48.710;9.622;2022-11-20T07:55:05;6.40;99.90
4643;DHT22;2334;48.710;9.622;2022-11-20T07:57:33;6.40;99.90
4643;DHT22;2334;48.710;9.622;2022-11-20T08:00:00;6.50;99.90
4643;DHT22;2334;48.710;9.622;2022-11-20T08:02:26;6.50;99.90
4643;DHT22;2334;48.710;9.622;2022-11-20T08:04:53;6.60;99.90
4643;DHT22;2334;48.710;9.622;2022-11-20T08:07:20;6.60;99.90
4643;DHT22;2334;48.710;9.622;2022-11-20T08:09:48;6.50;99.90
4643;DHT22;2334;48.710;9.622;2022-11-20T08:12:18;6.60;99.90
4643;DHT22;2334;48.710;9.622;2022-11-20T08:15:03;6.60;99.90
4643;DHT22;2334;48.710;9.622;2022-11-20T08:17:30;6.60;99.90
4643;DHT22;2334;48.710;9.622;2022-11-20T08:19:57;6.60;99.90
4643;DHT22;2334;48.710;9.622;2022-11-20T08:22:24;6.70;99.90
4643;DHT22;2334;48.710;9.622;2022-11-20T08:24:52;6.70;99.90
4643;DHT22;2334;48.710;9.622;2022-11-20T08:27:19;6.80;99.90
4643;DHT22;2334;48.710;9.622;2022-11-20T08:29:46;6.80;99.90
4643;DHT22;2334;48.710;9.622;2022-11-20T08:32:13;6.80;99.90
4643;DHT22;2334;48.710;9.622;2022-11-20T08:34:39;6.80;99.90
4643;DHT22;2334;48.710;9.622;2022-11-20T08:37:06;6.90;99.90
4643;DHT22;2334;48.710;9.622;2022-11-20T08:39:33;6.90;99.90
4643;DHT22;2334;48.710;9.622;2022-11-20T08:42:01;6.90;99.90
4643;DHT22;2334;48.710;9.622;2022-11-20T08:44:28;7.00;99.90
4643;DHT22;2334;48.710;9.622;2022-11-20T08:46:55;7.00;99.90
4643;DHT22;2334;48.710;9.622;2022-11-20T08:49:22;7.00;99.90
4643;DHT22;2334;48.710;9.622;2022-11-20T08:51:49;7.00;99.90
4643;DHT22;2334;48.710;9.622;2022-11-20T08:54:19;6.90;99.90
4643;DHT22;2334;48.710;9.622;2022-11-20T08:56:47;6.90;99.90
4643;DHT22;2334;48.710;9.622;2022-11-20T08:59:15;6.90;99.90
4643;DHT22;2334;48.710;9.622;2022-11-20T09:01:42;7.00;99.90
4643;DHT22;2334;48.710;9.622;2022-11-20T09:04:09;7.00;99.90
4643;DHT22;2334;48.710;9.622;2022-11-20T09:06:37;7.10;99.90
4643;DHT22;2334;48.710;9.622;2022-11-20T09:09:04;7.10;99.90
4643;DHT22;2334;48.710;9.622;2022-11-20T09:11:31;7.10;99.90
4643;DHT22;2334;48.710;9.622;2022-11-20T09:13:58;7.00;99.90
4643;DHT22;2334;48.710;9.622;2022-11-20T09:16:26;7.10;99.90
4643;DHT22;2334;48.710;9.622;2022-11-20T09:18:53;7.10;99.90
4643;DHT22;2334;48.710;9.622;2022-11-20T09:21:20;7.10;99.90
4643;DHT22;2334;48.710;9.622;2022-11-20T09:23:48;7.00;99.90
4643;DHT22;2334;48.710;9.622;2022-11-20T09:26:15;7.10;99.90
4643;DHT22;2334;48.710;9.622;2022-11-20T09:28:42;7.00;99.90
4643;DHT22;2334;48.710;9.622;2022-11-20T09:31:14;7.10;99.90
4643;DHT22;2334;48.710;9.622;2022-11-20T09:33:43;7.10;99.90
4643;DHT22;2334;48.710;9.622;2022-11-20T09:36:10;7.00;99.90
4643;DHT22;2334;48.710;9.622;2022-11-20T09:38:37;7.10;99.90
4643;DHT22;2334;48.710;9.622;2022-11-20T09:41:06;7.10;99.90
4643;DHT22;2334;48.710;9.622;2022-11-20T09:43:44;7.20;99.90
4643;DHT22;2334;48.710;9.622;2022-11-20T09:46:16;7.20;99.90
4643;DHT22;2334;48.710;9.622;2022-11-20T09:48:53;7.20;99.90
4643;DHT22;2334;48.710;9.622;2022-11-20T09:51:32;7.20;99.90
4643;DHT22;2334;48.710;9.622;2022-11-20T09:54:12;7.10;99.90
4643;DHT22;2334;48.710;9.622;2022-11-20T09:56:43;7.10;99.90
4643;DHT22;2334;48.710;9.622;2022-11-20T09:59:23;7.10;99.90
4643;DHT22;2334;48.710;9.622;2022-11-20T10:01:54;7.10;99.90
4643;DHT22;2334;48.710;9.622;2022-11-20T10:04:24;7.10;99.90
4643;DHT22;2334;48.710;9.622;2022-11-20T10:06:54;7.10;99.90
4643;DHT22;2334;48.710;9.622;2022-11-20T10:09:29;7.10;99.90
4643;DHT22;2334;48.710;9.622;2022-11-20T10:12:11;7.10;99.90
4643;DHT22;2334;48.710;9.622;2022-11-20T10:14:56;7.10;99.90
4643;DHT22;2334;48.710;9.622;2022-11-20T10:17:50;7.10;99.90
4643;DHT22;2334;48.710;9.622;2022-11-20T10:20:28;7.10;99.90
4643;DHT22;2334;48.710;9.622;2022-11-20T10:23:12;7.10;99.90
4643;DHT22;2334;48.710;9.622;2022-11-20T10:25:48;7.10;99.90
4643;DHT22;2334;48.710;9.622;2022-11-20T10:28:27;7.10;99.90
4643;DHT22;2334;48.710;9.622;2022-11-20T10:31:00;7.00;99.90
4643;DHT22;2334;48.710;9.622;2022-11-20T10:33:32;7.10;99.90
4643;DHT22;2334;48.710;9.622;2022-11-20T10:36:08;7.10;99.90
4643;DHT22;2334;48.710;9.622;2022-11-20T10:38:44;7.10;99.90
4643;DHT22;2334;48.710;9.622;2022-11-20T10:41:29;7.10;99.90
4643;DHT22;2334;48.710;9.622;2022-11-20T10:44:02;7.10;99.90
4643;DHT22;2334;48.710;9.622;2022-11-20T10:46:36;7.10;99.90
4643;DHT22;2334;48.710;9.622;2022-11-20T10:49:09;7.10;99.90
4643;DHT22;2334;48.710;9.622;2022-11-20T10:51:49;7.10;99.90
4643;DHT22;2334;48.710;9.622;2022-11-20T10:54:24;7.10;99.90
4643;DHT22;2334;48.710;9.622;2022-11-20T10:56:58;7.10;99.90
4643;DHT22;2334;48.710;9.622;2022-11-20T10:59:40;7.10;99.90
4643;DHT22;2334;48.710;9.622;2022-11-20T11:02:15;7.10;99.90
4643;DHT22;2334;48.710;9.622;2022-11-20T11:04:44;7.10;99.90
4643;DHT22;2334;48.710;9.622;2022-11-20T11:07:16;7.10;99.90
4643;DHT22;2334;48.710;9.622;2022-11-20T11:09:47;7.10;99.90
4643;DHT22;2334;48.710;9.622;2022-11-20T11:12:14;7.00;99.90
4643;DHT22;2334;48.710;9.622;2022-11-20T11:14:46;6.90;99.90
4643;DHT22;2334;48.710;9.622;2022-11-20T11:17:26;6.90;99.90
4643;DHT22;2334;48.710;9.622;2022-11-20T11:20:00;6.80;99.90
4643;DHT22;2334;48.710;9.622;2022-11-20T11:22:31;6.80;99.90
4643;DHT22;2334;48.710;9.622;2022-11-20T11:24:58;6.80;99.90
4643;DHT22;2334;48.710;9.622;2022-11-20T11:27:35;6.70;99.90
4643;DHT22;2334;48.710;9.622;2022-11-20T11:30:13;6.70;99.90
4643;DHT22;2334;48.710;9.622;2022-11-20T11:32:41;6.70;99.90
4643;DHT22;2334;48.710;9.622;2022-11-20T11:35:20;6.70;99.90
4643;DHT22;2334;48.710;9.622;2022-11-20T11:37:49;6.60;99.90
4643;DHT22;2334;48.710;9.622;2022-11-20T11:40:18;6.60;99.90
4643;DHT22;2334;48.710;9.622;2022-11-20T11:42:52;6.60;99.90
4643;DHT22;2334;48.710;9.622;2022-11-20T11:45:20;6.60;99.90
4643;DHT22;2334;48.710;9.622;2022-11-20T11:47:47;6.60;99.90
4643;DHT22;2334;48.710;9.622;2022-11-20T11:50:20;6.60;99.90
4643;DHT22;2334;48.710;9.622;2022-11-20T11:55:37;6.60;99.90
4643;DHT22;2334;48.710;9.622;2022-11-20T11:58:14;6.70;99.90
4643;DHT22;2334;48.710;9.622;2022-11-20T12:00:51;6.70;99.90
4643;DHT22;2334;48.710;9.622;2022-11-20T12:03:24;6.70;99.90
4643;DHT22;2334;48.710;9.622;2022-11-20T12:05:58;6.80;99.90
4643;DHT22;2334;48.710;9.622;2022-11-20T12:08:32;6.80;99.90
4643;DHT22;2334;48.710;9.622;2022-11-20T12:11:06;6.80;99.90
4643;DHT22;2334;48.710;9.622;2022-11-20T12:13:44;6.90;99.90
4643;DHT22;2334;48.710;9.622;2022-11-20T12:16:14;7.10;99.90
4643;DHT22;2334;48.710;9.622;2022-11-20T12:18:43;7.20;99.90
4643;DHT22;2334;48.710;9.622;2022-11-20T12:21:18;7.20;99.90
4643;DHT22;2334;48.710;9.622;2022-11-20T12:24:00;7.20;99.90
4643;DHT22;2334;48.710;9.622;2022-11-20T12:26:43;7.30;99.90
4643;DHT22;2334;48.710;9.622;2022-11-20T12:29:17;7.30;99.90
4643;DHT22;2334;48.710;9.622;2022-11-20T12:34:52;7.20;99.90
4643;DHT22;2334;48.710;9.622;2022-11-20T12:37:33;7.20;99.90
4643;DHT22;2334;48.710;9.622;2022-11-20T12:40:16;7.20;99.90
4643;DHT22;2334;48.710;9.622;2022-11-20T12:42:55;7.20;99.90
4643;DHT22;2334;48.710;9.622;2022-11-20T12:46:08;7.30;99.90
4643;DHT22;2334;48.710;9.622;2022-11-20T12:48:46;7.60;99.90
4643;DHT22;2334;48.710;9.622;2022-11-20T12:51:43;7.70;99.90
4643;DHT22;2334;48.710;9.622;2022-11-20T12:54:43;7.80;99.90
4643;DHT22;2334;48.710;9.622;2022-11-20T12:57:21;7.90;99.90
4643;DHT22;2334;48.710;9.622;2022-11-20T13:00:07;7.90;99.90
4643;DHT22;2334;48.710;9.622;2022-11-20T13:02:45;7.80;99.90
4643;DHT22;2334;48.710;9.622;2022-11-20T13:05:24;7.80;99.90
4643;DHT22;2334;48.710;9.622;2022-11-20T13:07:52;7.90;99.90
4643;DHT22;2334;48.710;9.622;2022-11-20T13:10:26;7.90;99.90
4643;DHT22;2334;48.710;9.622;2022-11-20T13:13:01;7.90;99.90
4643;DHT22;2334;48.710;9.622;2022-11-20T13:15:47;7.90;99.90
4643;DHT22;2334;48.710;9.622;2022-11-20T13:18:15;7.80;99.90
4643;DHT22;2334;48.710;9.622;2022-11-20T13:20:44;7.80;99.90
4643;DHT22;2334;48.710;9.622;2022-11-20T13:23:23;7.70;99.90
4643;DHT22;2334;48.710;9.622;2022-11-20T13:25:50;7.80;99.90
4643;DHT22;2334;48.710;9.622;2022-11-20T13:28:28;7.70;99.90
4643;DHT22;2334;48.710;9.622;2022-11-20T13:30:57;7.70;99.90
4643;DHT22;2334;48.710;9.622;2022-11-20T13:33:29;7.60;99.90
4643;DHT22;2334;48.710;9.622;2022-11-20T13:35:58;7.70;99.90
4643;DHT22;2334;48.710;9.622;2022-11-20T13:38:25;7.70;99.90
4643;DHT22;2334;48.710;9.622;2022-11-20T13:40:54;7.80;99.90
4643;DHT22;2334;48.710;9.622;2022-11-20T13:43:37;7.80;99.90
4643;DHT22;2334;48.710;9.622;2022-11-20T13:46:05;7.80;99.90
4643;DHT22;2334;48.710;9.622;2022-11-20T13:48:34;7.80;99.90
4643;DHT22;2334;48.710;9.622;2022-11-20T13:51:14;7.80;99.90
4643;DHT22;2334;48.710;9.622;2022-11-20T13:54:04;7.90;99.90
4643;DHT22;2334;48.710;9.622;2022-11-20T13:56:47;7.80;99.90
4643;DHT22;2334;48.710;9.622;2022-11-20T14:02:11;7.70;99.90
4643;DHT22;2334;48.710;9.622;2022-11-20T14:04:42;7.70;99.90
4643;DHT22;2334;48.710;9.622;2022-11-20T14:07:10;7.80;99.90
4643;DHT22;2334;48.710;9.622;2022-11-20T14:09:37;7.80;99.90
4643;DHT22;2334;48.710;9.622;2022-11-20T14:12:15;7.80;99.90
4643;DHT22;2334;48.710;9.622;2022-11-20T14:14:49;7.80;99.90
4643;DHT22;2334;48.710;9.622;2022-11-20T14:17:20;7.70;99.90
4643;DHT22;2334;48.710;9.622;2022-11-20T14:19:48;7.70;99.90
4643;DHT22;2334;48.710;9.622;2022-11-20T14:22:20;7.60;99.90
4643;DHT22;2334;48.710;9.622;2022-11-20T14:24:49;7.60;99.90
4643;DHT22;2334;48.710;9.622;2022-11-20T14:27:18;7.60;99.90
4643;DHT22;2334;48.710;9.622;2022-11-20T14:29:48;7.60;99.90
4643;DHT22;2334;48.710;9.622;2022-11-20T14:32:17;7.60;99.90
4643;DHT22;2334;48.710;9.622;2022-11-20T14:34:46;7.60;99.90
4643;DHT22;2334;48.710;9.622;2022-11-20T14:37:19;7.70;99.90
4643;DHT22;2334;48.710;9.622;2022-11-20T14:39:50;7.70;99.90
4643;DHT22;2334;48.710;9.622;2022-11-20T14:42:20;7.70;99.90
4643;DHT22;2334;48.710;9.622;2022-11-20T14:44:50;7.70;99.90
4643;DHT22;2334;48.710;9.622;2022-11-20T14:47:20;7.70;99.90
4643;DHT22;2334;48.710;9.622;2022-11-20T14:49:48;7.70;99.90
4643;DHT22;2334;48.710;9.622;2022-11-20T14:52:17;7.70;99.90
4643;DHT22;2334;48.710;9.622;2022-11-20T14:54:46;7.70;99.90
4643;DHT22;2334;48.710;9.622;2022-11-20T14:57:27;7.70;99.90
4643;DHT22;2334;48.710;9.622;2022-11-20T15:00:08;7.70;99.90
4643;DHT22;2334;48.710;9.622;2022-11-20T15:02:45;7.60;99.90
4643;DHT22;2334;48.710;9.622;2022-11-20T15:05:13;7.50;99.90
4643;DHT22;2334;48.710;9.622;2022-11-20T15:07:43;7.50;99.90
4643;DHT22;2334;48.710;9.622;2022-11-20T15:10:22;7.50;99.90
4643;DHT22;2334;48.710;9.622;2022-11-20T15:12:51;7.50;99.90
4643;DHT22;2334;48.710;9.622;2022-11-20T15:15:23;7.40;99.90
4643;DHT22;2334;48.710;9.622;2022-11-20T15:17:52;7.40;99.90
4643;DHT22;2334;48.710;9.622;2022-11-20T15:20:20;7.40;99.90
4643;DHT22;2334;48.710;9.622;2022-11-20T15:22:48;7.30;99.90
4643;DHT22;2334;48.710;9.622;2022-11-20T15:25:16;7.20;99.90
4643;DHT22;2334;48.710;9.622;2022-11-20T15:27:44;7.20;99.90
4643;DHT22;2334;48.710;9.622;2022-11-20T15:30:16;7.10;99.90
4643;DHT22;2334;48.710;9.622;2022-11-20T15:32:45;7.10;99.90
4643;DHT22;2334;48.710;9.622;2022-11-20T15:35:13;7.10;99.90
4643;DHT22;2334;48.710;9.622;2022-11-20T15:37:40;7.00;99.90
4643;DHT22;2334;48.710;9.622;2022-11-20T15:40:09;7.10;99.90
4643;DHT22;2334;48.710;9.622;2022-11-20T15:42:36;7.10;99.90
4643;DHT22;2334;48.710;9.622;2022-11-20T15:45:03;7.10;99.90
4643;DHT22;2334;48.710;9.622;2022-11-20T15:47:33;7.00;99.90
4643;DHT22;2334;48.710;9.622;2022-11-20T15:50:02;7.10;99.90
4643;DHT22;2334;48.710;9.622;2022-11-20T15:52:29;7.00;99.90
4643;DHT22;2334;48.710;9.622;2022-11-20T15:54:55;7.00;99.90
4643;DHT22;2334;48.710;9.622;2022-11-20T15:57:22;7.00;99.90
4643;DHT22;2334;48.710;9.622;2022-11-20T15:59:49;6.90;99.90
4643;DHT22;2334;48.710;9.622;2022-11-20T16:02:16;6.90;99.90
4643;DHT22;2334;48.710;9.622;2022-11-20T16:04:43;6.80;99.90
4643;DHT22;2334;48.710;9.622;2022-11-20T16:07:11;6.70;99.90
4643;DHT22;2334;48.710;9.622;2022-11-20T16:09:38;6.60;99.90
4643;DHT22;2334;48.710;9.622;2022-11-20T16:12:07;6.50;99.90
4643;DHT22;2334;48.710;9.622;2022-11-20T16:14:54;6.50;99.90
4643;DHT22;2334;48.710;9.622;2022-11-20T16:17:38;6.40;99.90
4643;DHT22;2334;48.710;9.622;2022-11-20T16:20:11;6.40;99.90
4643;DHT22;2334;48.710;9.622;2022-11-20T16:22:39;6.30;99.90
4643;DHT22;2334;48.710;9.622;2022-11-20T16:25:07;6.20;99.90
4643;DHT22;2334;48.710;9.622;2022-11-20T16:27:33;6.10;99.90
4643;DHT22;2334;48.710;9.622;2022-11-20T16:30:00;6.00;99.90
4643;DHT22;2334;48.710;9.622;2022-11-20T16:32:27;5.90;99.90
4643;DHT22;2334;48.710;9.622;2022-11-20T16:34:54;5.90;99.90
4643;DHT22;2334;48.710;9.622;2022-11-20T16:37:21;5.80;99.90
4643;DHT22;2334;48.710;9.622;2022-11-20T16:39:49;5.70;99.90
4643;DHT22;2334;48.710;9.622;2022-11-20T16:42:16;5.60;99.90
4643;DHT22;2334;48.710;9.622;2022-11-20T16:44:45;5.50;99.90